createdAt,value
2023-02-23T00:01:55.372Z,0.50
2023-02-23T00:04:23.814Z,0.50
2023-02-23T00:06:54.692Z,0.50
2023-02-23T00:09:25.038Z,0.50
2023-02-23T00:11:56.907Z,0.40
2023-02-23T00:14:31.294Z,0.30
2023-02-23T00:17:00.198Z,0.20
2023-02-23T00:19:27.221Z,0.20
2023-02-23T00:21:54.964Z,0.10
2023-02-23T00:24:22.297Z,-0.10
2023-02-23T00:26:51.640Z,-0.20
2023-02-23T00:29:21.337Z,-0.30
2023-02-23T00:31:49.866Z,-0.40
2023-02-23T00:34:23.747Z,-0.40
2023-02-23T00:36:55.636Z,-0.50
2023-02-23T00:39:29.329Z,-0.60
2023-02-23T00:41:57.384Z,-0.70
2023-02-23T00:44:24.996Z,-0.70
2023-02-23T00:46:52.729Z,-0.80
2023-02-23T00:49:22.204Z,-0.80
2023-02-23T00:51:49.436Z,-0.90
2023-02-23T00:54:18.143Z,-0.90
2023-02-23T00:56:45.640Z,-0.90
2023-02-23T00:59:13.522Z,-1.00
2023-02-23T01:01:44.440Z,-1.10
2023-02-23T01:04:13.069Z,-1.10
2023-02-23T01:06:41.749Z,-1.10
2023-02-23T01:09:13.547Z,-1.10
2023-02-23T01:11:41.684Z,-1.10
2023-02-23T01:14:10.474Z,-1.10
2023-02-23T01:16:39.118Z,-1.20
2023-02-23T01:19:06.996Z,-1.20
2023-02-23T01:21:37.025Z,-1.30
2023-02-23T01:24:04.896Z,-1.30
2023-02-23T01:26:35.323Z,-1.40
2023-02-23T01:29:09.000Z,-1.40
2023-02-23T01:31:38.138Z,-1.30
2023-02-23T01:34:06.235Z,-1.50
2023-02-23T01:36:41.563Z,-1.40
2023-02-23T01:39:12.700Z,-1.60
2023-02-23T01:41:42.603Z,-1.60
2023-02-23T01:44:15.569Z,-1.50
2023-02-23T01:46:45.774Z,-1.60
2023-02-23T01:49:22.883Z,-1.70
2023-02-23T01:51:55.856Z,-1.70
2023-02-23T01:54:29.154Z,-1.70
2023-02-23T01:57:00.211Z,-1.70
2023-02-23T01:59:39.200Z,-1.70
2023-02-23T02:02:06.244Z,-1.70
2023-02-23T02:04:44.102Z,-1.80
2023-02-23T02:07:28.507Z,-1.80
2023-02-23T02:10:13.290Z,-1.80
2023-02-23T02:12:44.341Z,-1.80
2023-02-23T02:15:17.532Z,-1.90
2023-02-23T02:17:47.596Z,-1.90
2023-02-23T02:20:32.953Z,-1.90
2023-02-23T02:23:08.621Z,-1.80
2023-02-23T02:26:10.848Z,-1.80
2023-02-23T02:29:15.005Z,-1.80
2023-02-23T02:32:04.457Z,-1.90
2023-02-23T02:34:55.989Z,-1.90
2023-02-23T02:37:57.072Z,-1.80
2023-02-23T02:40:53.480Z,-1.90
2023-02-23T02:44:00.780Z,-1.90
2023-02-23T02:46:41.886Z,-1.90
2023-02-23T02:49:09.318Z,-1.70
2023-02-23T02:51:44.968Z,-1.70
2023-02-23T02:54:33.473Z,-1.70
2023-02-23T02:57:04.553Z,-1.70
2023-02-23T02:59:50.348Z,-1.60
2023-02-23T03:02:39.845Z,-1.70
2023-02-23T03:05:36.232Z,-1.60
2023-02-23T03:08:24.312Z,-1.60
2023-02-23T03:11:20.418Z,-1.60
2023-02-23T03:14:14.985Z,-1.60
2023-02-23T03:17:33.244Z,-1.70
2023-02-23T03:20:30.452Z,-1.70
2023-02-23T03:23:33.549Z,-1.70
2023-02-23T03:26:27.944Z,-1.70
2023-02-23T03:29:33.414Z,-1.70
2023-02-23T03:32:22.606Z,-1.70
2023-02-23T03:35:24.371Z,-1.60
2023-02-23T03:38:26.521Z,-1.50
2023-02-23T03:41:14.964Z,-1.50
2023-02-23T03:44:12.818Z,-1.50
2023-02-23T03:47:00.052Z,-1.50
2023-02-23T03:49:48.467Z,-1.50
2023-02-23T03:52:40.110Z,-1.50
2023-02-23T03:55:44.402Z,-1.50
2023-02-23T03:58:34.519Z,-1.50
2023-02-23T04:01:22.959Z,-1.50
2023-02-23T04:04:10.647Z,-1.50
2023-02-23T04:07:02.313Z,-1.50
2023-02-23T04:09:48.438Z,-1.40
2023-02-23T04:12:40.607Z,-1.40
2023-02-23T04:15:29.206Z,-1.40
2023-02-23T04:17:56.577Z,-1.50
2023-02-23T04:20:25.897Z,-1.40
2023-02-23T04:22:52.867Z,-1.40
2023-02-23T04:25:23.011Z,-1.40
2023-02-23T04:27:50.953Z,-1.40
2023-02-23T04:30:18.418Z,-1.40
2023-02-23T04:32:46.179Z,-1.40
2023-02-23T04:35:13.995Z,-1.40
2023-02-23T04:37:40.946Z,-1.40
2023-02-23T04:40:08.954Z,-1.40
2023-02-23T04:42:36.332Z,-1.40
2023-02-23T04:45:03.310Z,-1.50
2023-02-23T04:47:30.304Z,-1.40
2023-02-23T04:49:57.250Z,-1.40
2023-02-23T04:52:24.262Z,-1.50
2023-02-23T04:54:51.295Z,-1.40
2023-02-23T04:57:18.370Z,-1.40
2023-02-23T04:59:45.914Z,-1.50
2023-02-23T05:02:12.854Z,-1.50
2023-02-23T05:04:39.967Z,-1.50
2023-02-23T05:07:07.055Z,-1.40
2023-02-23T05:09:34.326Z,-1.60
2023-02-23T05:12:01.704Z,-1.50
2023-02-23T05:14:28.653Z,-1.50
2023-02-23T05:16:55.663Z,-1.60
2023-02-23T05:19:22.548Z,-1.60
2023-02-23T05:21:50.619Z,-1.60
2023-02-23T05:24:18.645Z,-1.60
2023-02-23T05:26:45.957Z,-1.70
2023-02-23T05:29:13.193Z,-1.60
2023-02-23T05:31:40.227Z,-1.60
2023-02-23T05:34:07.274Z,-1.70
2023-02-23T05:36:34.292Z,-1.60
2023-02-23T05:39:01.241Z,-1.60
2023-02-23T05:41:28.136Z,-1.60
2023-02-23T05:43:55.240Z,-1.60
2023-02-23T05:46:24.658Z,-1.60
2023-02-23T05:49:00.880Z,-1.70
2023-02-23T05:51:30.036Z,-1.70
2023-02-23T05:53:56.977Z,-1.70
2023-02-23T05:56:24.093Z,-1.60
2023-02-23T05:58:58.050Z,-1.60
2023-02-23T06:01:26.356Z,-1.70
2023-02-23T06:03:53.334Z,-1.60
2023-02-23T06:06:20.682Z,-1.60
2023-02-23T06:08:47.632Z,-1.60
2023-02-23T06:11:14.640Z,-1.60
2023-02-23T06:13:41.569Z,-1.60
2023-02-23T06:16:09.000Z,-1.60
2023-02-23T06:18:36.484Z,-1.60
2023-02-23T06:21:04.304Z,-1.50
2023-02-23T06:23:32.587Z,-1.50
2023-02-23T06:26:02.182Z,-1.60
2023-02-23T06:28:29.984Z,-1.50
2023-02-23T06:30:57.545Z,-1.50
2023-02-23T06:33:25.248Z,-1.60
2023-02-23T06:35:52.987Z,-1.60
2023-02-23T06:38:20.583Z,-1.50
2023-02-23T06:40:47.646Z,-1.50
2023-02-23T06:43:14.616Z,-1.50
2023-02-23T06:45:41.838Z,-1.50
2023-02-23T06:48:08.901Z,-1.40
2023-02-23T06:50:35.885Z,-1.40
2023-02-23T06:53:03.153Z,-1.30
2023-02-23T06:55:30.089Z,-1.30
2023-02-23T06:57:57.095Z,-1.30
2023-02-23T07:00:24.459Z,-1.30
2023-02-23T07:02:51.404Z,-1.20
2023-02-23T07:05:18.494Z,-1.10
2023-02-23T07:07:45.634Z,-1.10
2023-02-23T07:10:12.908Z,-1.00
2023-02-23T07:12:39.932Z,-1.00
2023-02-23T07:15:07.514Z,-0.90
2023-02-23T07:17:34.728Z,-0.90
2023-02-23T07:20:01.954Z,-0.80
2023-02-23T07:22:30.585Z,-0.70
2023-02-23T07:24:57.947Z,-0.60
2023-02-23T07:27:25.553Z,-0.50
2023-02-23T07:33:40.204Z,-0.30
2023-02-23T07:36:07.634Z,-0.30
2023-02-23T07:38:35.390Z,-0.20
2023-02-23T07:41:02.678Z,-0.10
2023-02-23T07:43:29.713Z,-0.10
2023-02-23T07:46:01.020Z,-0.10
2023-02-23T07:48:29.210Z,-0.10
2023-02-23T07:50:56.171Z,0.00
2023-02-23T07:53:23.886Z,0.00
2023-02-23T07:55:58.480Z,-0.10
2023-02-23T07:58:28.139Z,-0.10
2023-02-23T08:00:55.257Z,-0.10
2023-02-23T08:03:22.292Z,-0.10
2023-02-23T08:05:49.215Z,-0.10
2023-02-23T08:08:16.221Z,0.00
2023-02-23T08:10:43.131Z,0.10
2023-02-23T08:13:10.868Z,0.00
2023-02-23T08:19:25.175Z,0.00
2023-02-23T08:21:52.936Z,0.00
2023-02-23T08:24:19.833Z,0.10
2023-02-23T08:26:46.825Z,0.10
2023-02-23T08:29:13.746Z,0.10
2023-02-23T08:31:40.885Z,0.20
2023-02-23T08:34:08.355Z,0.30
2023-02-23T08:36:35.435Z,0.30
2023-02-23T08:39:02.472Z,0.30
2023-02-23T08:41:29.394Z,0.10
2023-02-23T08:47:44.068Z,0.30
2023-02-23T08:50:11.960Z,0.40
2023-02-23T08:52:40.064Z,0.50
2023-02-23T08:55:07.860Z,0.50
2023-02-23T08:57:35.763Z,0.60
2023-02-23T09:00:06.484Z,0.60
2023-02-23T09:02:33.426Z,0.70
2023-02-23T09:05:00.456Z,0.70
2023-02-23T09:07:27.432Z,0.90
2023-02-23T09:09:58.228Z,0.90
2023-02-23T09:12:25.614Z,0.90
2023-02-23T09:14:53.911Z,0.90
2023-02-23T09:21:19.131Z,1.00
2023-02-23T09:23:48.368Z,1.10
2023-02-23T09:26:15.392Z,1.10
2023-02-23T09:28:43.444Z,1.20
2023-02-23T09:31:12.913Z,1.20
2023-02-23T09:33:40.384Z,1.30
2023-02-23T09:36:19.902Z,1.30
2023-02-23T09:38:49.072Z,1.40
2023-02-23T09:41:37.234Z,1.40
2023-02-23T09:44:26.805Z,1.50
2023-02-23T09:47:21.380Z,1.60
2023-02-23T09:49:50.902Z,1.70
2023-02-23T09:52:21.804Z,1.70
2023-02-23T09:54:49.013Z,1.80
2023-02-23T09:57:21.556Z,1.80
2023-02-23T09:59:48.620Z,1.80
2023-02-23T10:02:21.457Z,1.90
2023-02-23T10:09:14.668Z,2.00
2023-02-23T10:11:44.330Z,2.10
2023-02-23T10:14:18.886Z,2.30
2023-02-23T10:17:01.151Z,2.30
2023-02-23T10:19:44.840Z,2.50
2023-02-23T10:22:14.264Z,2.70
2023-02-23T10:24:45.768Z,2.80
2023-02-23T10:27:18.190Z,3.00
2023-02-23T10:30:02.893Z,3.00
2023-02-23T10:32:40.858Z,3.10
2023-02-23T10:35:16.543Z,3.10
2023-02-23T10:37:43.690Z,3.30
2023-02-23T10:40:32.406Z,3.40
2023-02-23T10:43:02.785Z,3.50
2023-02-23T10:45:34.557Z,3.70
2023-02-23T10:48:08.325Z,3.70
2023-02-23T10:50:38.620Z,3.70
2023-02-23T10:53:16.791Z,3.70
2023-02-23T10:55:59.961Z,3.80
2023-02-23T10:58:27.784Z,3.90
2023-02-23T11:00:58.593Z,3.90
2023-02-23T11:03:38.949Z,4.00
2023-02-23T11:06:07.246Z,3.90
2023-02-23T11:08:36.489Z,4.00
2023-02-23T11:11:19.494Z,4.10
2023-02-23T11:13:49.819Z,4.20
2023-02-23T11:16:26.750Z,4.10
2023-02-23T11:18:58.682Z,4.00
2023-02-23T11:21:34.407Z,4.00
2023-02-23T11:24:32.723Z,4.10
2023-02-23T11:27:03.909Z,3.90
2023-02-23T11:29:35.396Z,3.90
2023-02-23T11:32:22.163Z,3.90
2023-02-23T11:35:27.225Z,4.00
2023-02-23T11:37:54.834Z,3.90
2023-02-23T11:40:26.047Z,3.80
2023-02-23T11:43:07.466Z,3.90
2023-02-23T11:45:57.018Z,3.80
2023-02-23T11:48:49.457Z,3.80
2023-02-23T11:51:41.919Z,4.00
2023-02-23T11:54:22.353Z,3.80
2023-02-23T11:56:55.422Z,3.80
2023-02-23T11:59:36.052Z,3.80
2023-02-23T12:02:25.997Z,3.80
2023-02-23T12:05:10.155Z,3.80
2023-02-23T12:08:00.506Z,3.80
2023-02-23T12:10:43.457Z,3.70
2023-02-23T12:13:25.741Z,3.80
2023-02-23T12:16:20.201Z,3.70
2023-02-23T12:19:06.748Z,3.80
2023-02-23T12:21:41.374Z,3.90
2023-02-23T12:24:28.650Z,4.10
2023-02-23T12:27:41.922Z,4.20
2023-02-23T12:30:09.434Z,4.30
2023-02-23T12:32:56.853Z,4.20
2023-02-23T12:35:31.171Z,4.20
2023-02-23T12:38:04.118Z,4.00
2023-02-23T12:40:35.762Z,4.30
2023-02-23T12:43:12.023Z,4.50
2023-02-23T12:45:45.239Z,4.60
2023-02-23T12:48:15.506Z,4.60
2023-02-23T12:50:56.271Z,4.80
2023-02-23T12:53:34.272Z,4.60
2023-02-23T12:56:04.579Z,4.60
2023-02-23T12:58:46.913Z,4.60
2023-02-23T13:01:19.174Z,4.60
2023-02-23T13:04:06.127Z,4.80
2023-02-23T13:06:56.158Z,4.70
2023-02-23T13:09:32.187Z,4.70
2023-02-23T13:12:20.151Z,4.80
2023-02-23T13:14:52.908Z,4.80
2023-02-23T13:17:28.648Z,4.80
2023-02-23T13:20:04.738Z,4.80
2023-02-23T13:23:31.132Z,4.70
2023-02-23T13:26:47.169Z,4.70
2023-02-23T13:29:16.870Z,4.80
2023-02-23T13:31:45.129Z,4.70
2023-02-23T13:34:27.871Z,4.70
2023-02-23T13:36:55.802Z,4.70
2023-02-23T13:39:39.122Z,4.90
2023-02-23T13:42:22.057Z,5.00
2023-02-23T13:45:25.862Z,5.20
2023-02-23T13:48:23.749Z,5.30
2023-02-23T13:51:12.910Z,5.50
2023-02-23T13:54:08.224Z,5.40
2023-02-23T13:56:58.636Z,5.60
2023-02-23T13:59:46.061Z,5.30
2023-02-23T14:02:34.694Z,5.40
2023-02-23T14:05:27.754Z,5.30
2023-02-23T14:08:03.770Z,5.20
2023-02-23T14:10:45.465Z,5.10
2023-02-23T14:13:15.847Z,5.10
2023-02-23T14:15:48.413Z,5.00
2023-02-23T14:18:21.077Z,5.00
2023-02-23T14:21:15.783Z,5.00
2023-02-23T14:23:42.689Z,4.90
2023-02-23T14:26:13.480Z,5.00
2023-02-23T14:28:43.582Z,4.90
2023-02-23T14:31:13.716Z,5.00
2023-02-23T14:33:45.823Z,5.00
2023-02-23T14:36:21.930Z,5.00
2023-02-23T14:39:00.377Z,4.90
2023-02-23T14:41:45.220Z,4.80
2023-02-23T14:44:30.236Z,4.80
2023-02-23T14:47:07.422Z,4.90
2023-02-23T14:49:40.507Z,4.80
2023-02-23T14:52:20.837Z,4.80
2023-02-23T14:54:48.392Z,4.80
2023-02-23T14:57:25.623Z,4.80
2023-02-23T15:00:06.975Z,4.80
2023-02-23T15:02:34.373Z,4.70
2023-02-23T15:05:18.090Z,4.80
2023-02-23T15:07:45.920Z,4.70
2023-02-23T15:10:41.051Z,4.70
2023-02-23T15:13:24.994Z,4.60
2023-02-23T15:15:52.177Z,4.50
2023-02-23T15:18:29.343Z,4.40
2023-02-23T15:20:56.850Z,4.40
2023-02-23T15:23:24.067Z,4.30
2023-02-23T15:25:52.968Z,4.30
2023-02-23T15:28:33.302Z,4.20
2023-02-23T15:31:04.765Z,4.20
2023-02-23T15:33:33.443Z,4.10
2023-02-23T15:36:34.952Z,4.10
2023-02-23T15:39:05.324Z,4.00
2023-02-23T15:41:39.544Z,4.00
2023-02-23T15:44:15.041Z,3.90
2023-02-23T15:46:44.437Z,3.90
2023-02-23T15:49:17.533Z,3.90
2023-02-23T15:51:51.317Z,3.80
2023-02-23T15:54:27.448Z,3.90
2023-02-23T15:57:02.969Z,3.80
2023-02-23T15:59:35.585Z,3.80
2023-02-23T16:02:04.960Z,3.80
2023-02-23T16:04:34.034Z,3.80
2023-02-23T16:07:21.860Z,3.70
2023-02-23T16:10:05.304Z,3.70
2023-02-23T16:12:37.272Z,3.70
2023-02-23T16:15:19.462Z,3.70
2023-02-23T16:17:51.453Z,3.70
2023-02-23T16:20:38.644Z,3.60
2023-02-23T16:23:33.308Z,3.50
2023-02-23T16:26:10.852Z,3.50
2023-02-23T16:28:44.350Z,3.40
2023-02-23T16:31:16.877Z,3.40
2023-02-23T16:34:03.547Z,3.40
2023-02-23T16:36:40.297Z,3.40
2023-02-23T16:39:11.883Z,3.30
2023-02-23T16:41:39.411Z,3.30
2023-02-23T16:44:07.919Z,3.30
2023-02-23T16:47:01.655Z,3.30
2023-02-23T16:49:30.142Z,3.30
2023-02-23T16:51:58.659Z,3.30
2023-02-23T16:54:26.080Z,3.40
2023-02-23T16:56:55.525Z,3.40
2023-02-23T16:59:23.693Z,3.40
2023-02-23T17:01:51.190Z,3.40
2023-02-23T17:04:21.783Z,3.40
2023-02-23T17:06:52.989Z,3.40
2023-02-23T17:09:19.950Z,3.40
2023-02-23T17:11:47.337Z,3.50
2023-02-23T17:14:28.155Z,3.40
2023-02-23T17:16:55.308Z,3.40
2023-02-23T17:19:24.439Z,3.40
2023-02-23T17:21:53.035Z,3.50
2023-02-23T17:24:20.047Z,3.40
2023-02-23T17:26:47.026Z,3.40
2023-02-23T17:29:14.072Z,3.40
2023-02-23T17:31:41.346Z,3.40
2023-02-23T17:34:08.626Z,3.40
2023-02-23T17:36:35.531Z,3.40
2023-02-23T17:39:03.291Z,3.40
2023-02-23T17:41:31.100Z,3.40
2023-02-23T17:43:58.085Z,3.50
2023-02-23T17:46:25.239Z,3.50
2023-02-23T17:48:53.849Z,3.50
2023-02-23T17:51:22.530Z,3.50
2023-02-23T17:53:49.869Z,3.60
2023-02-23T17:56:18.039Z,3.60
2023-02-23T17:58:45.845Z,3.60
2023-02-23T18:01:13.600Z,3.60
2023-02-23T18:03:40.785Z,3.70
2023-02-23T18:06:13.060Z,3.70
2023-02-23T18:08:42.484Z,3.80
2023-02-23T18:11:09.913Z,3.80
2023-02-23T18:13:37.067Z,3.80
2023-02-23T18:16:10.162Z,3.80
2023-02-23T18:18:40.285Z,3.80
2023-02-23T18:21:12.717Z,3.80
2023-02-23T18:23:39.740Z,3.80
2023-02-23T18:26:09.822Z,3.80
2023-02-23T18:28:38.671Z,3.80
2023-02-23T18:31:05.864Z,3.80
2023-02-23T18:33:36.007Z,3.80
2023-02-23T18:36:04.046Z,3.80
2023-02-23T18:38:31.206Z,3.80
2023-02-23T18:40:58.840Z,3.90
2023-02-23T18:43:25.828Z,3.90
2023-02-23T18:45:52.812Z,4.00
2023-02-23T18:48:20.622Z,4.00
2023-02-23T18:50:47.692Z,4.00
2023-02-23T18:53:14.658Z,4.10
2023-02-23T18:55:41.772Z,4.10
2023-02-23T18:58:08.773Z,4.20
2023-02-23T19:00:40.327Z,4.20
2023-02-23T19:03:07.567Z,4.30
2023-02-23T19:05:36.360Z,4.30
2023-02-23T19:08:04.222Z,4.30
2023-02-23T19:10:31.175Z,4.40
2023-02-23T19:12:58.144Z,4.40
2023-02-23T19:15:25.277Z,4.40
2023-02-23T19:17:52.402Z,4.40
2023-02-23T19:20:19.518Z,4.40
2023-02-23T19:22:46.928Z,4.50
2023-02-23T19:25:14.825Z,4.50
2023-02-23T19:27:42.592Z,4.50
2023-02-23T19:30:10.293Z,4.50
2023-02-23T19:32:39.916Z,4.50
2023-02-23T19:35:10.462Z,4.50
2023-02-23T19:37:40.751Z,4.60
2023-02-23T19:40:08.602Z,4.50
2023-02-23T19:42:37.061Z,4.50
2023-02-23T19:45:04.771Z,4.50
2023-02-23T19:47:31.768Z,4.60
2023-02-23T19:49:58.720Z,4.60
2023-02-23T19:52:28.900Z,4.60
2023-02-23T19:54:55.972Z,4.60
2023-02-23T19:57:23.342Z,4.60
2023-02-23T19:59:50.382Z,4.60
2023-02-23T20:02:17.443Z,4.60
2023-02-23T20:04:48.526Z,4.60
2023-02-23T20:07:16.388Z,4.70
2023-02-23T20:09:44.151Z,4.60
2023-02-23T20:12:11.199Z,4.60
2023-02-23T20:14:39.604Z,4.60
2023-02-23T20:17:07.350Z,4.60
2023-02-23T20:19:34.756Z,4.60
2023-02-23T20:22:02.932Z,4.60
2023-02-23T20:24:30.107Z,4.60
2023-02-23T20:26:59.307Z,4.60
2023-02-23T20:29:28.258Z,4.60
2023-02-23T20:31:55.441Z,4.60
2023-02-23T20:34:24.739Z,4.60
2023-02-23T20:36:52.423Z,4.60
2023-02-23T20:39:19.782Z,4.60
2023-02-23T20:41:47.992Z,4.50
2023-02-23T20:44:15.802Z,4.50
2023-02-23T20:46:44.729Z,4.50
2023-02-23T20:49:13.177Z,4.50
2023-02-23T20:51:41.539Z,4.50
2023-02-23T20:54:09.894Z,4.50
2023-02-23T20:56:39.435Z,4.50
2023-02-23T20:59:11.244Z,4.40
2023-02-23T21:01:42.988Z,4.40
2023-02-23T21:04:10.198Z,4.50
2023-02-23T21:06:37.308Z,4.60
2023-02-23T21:09:17.280Z,4.50
2023-02-23T21:11:50.663Z,4.60
2023-02-23T21:14:18.342Z,4.60
2023-02-23T21:16:46.410Z,4.60
2023-02-23T21:19:14.629Z,4.60
2023-02-23T21:21:58.363Z,4.60
2023-02-23T21:24:26.783Z,4.70
2023-02-23T21:26:53.765Z,4.80
2023-02-23T21:29:24.062Z,4.70
2023-02-23T21:31:51.588Z,4.80
2023-02-23T21:34:21.429Z,4.80
2023-02-23T21:36:50.103Z,4.70
2023-02-23T21:39:17.160Z,4.80
2023-02-23T21:41:44.077Z,4.80
2023-02-23T21:44:11.882Z,4.80
2023-02-23T21:46:40.532Z,4.80
2023-02-23T21:49:09.883Z,4.80
2023-02-23T21:51:37.174Z,4.80
2023-02-23T21:54:05.368Z,4.80
2023-02-23T21:56:36.886Z,4.80
2023-02-23T21:59:05.575Z,4.90
2023-02-23T22:01:35.594Z,4.80
2023-02-23T22:04:04.234Z,4.80
2023-02-23T22:06:37.119Z,4.80
2023-02-23T22:09:06.034Z,4.80
2023-02-23T22:11:36.682Z,4.80
2023-02-23T22:14:06.693Z,4.80
2023-02-23T22:16:36.051Z,4.80
2023-02-23T22:19:06.708Z,4.80
2023-02-23T22:21:38.886Z,4.80
2023-02-23T22:24:06.884Z,4.80
2023-02-23T22:26:38.368Z,4.80
2023-02-23T22:29:10.597Z,4.80
2023-02-23T22:31:38.203Z,4.80
2023-02-23T22:34:06.389Z,4.80
2023-02-23T22:36:34.470Z,4.80
2023-02-23T22:39:02.595Z,4.80
2023-02-23T22:41:29.756Z,4.80
2023-02-23T22:43:57.847Z,4.80
2023-02-23T22:46:25.842Z,4.80
2023-02-23T22:48:53.004Z,4.70
2023-02-23T22:51:20.909Z,4.80
2023-02-23T22:53:48.064Z,4.80
2023-02-23T22:56:15.093Z,4.80
2023-02-23T23:02:32.490Z,4.80
2023-02-23T23:05:02.303Z,4.80
2023-02-23T23:07:31.303Z,4.80
2023-02-23T23:10:00.778Z,4.80
2023-02-23T23:12:28.861Z,4.80
2023-02-23T23:14:56.851Z,4.80
2023-02-23T23:17:23.869Z,4.80
2023-02-23T23:19:51.003Z,4.70
2023-02-23T23:22:17.875Z,4.70
2023-02-23T23:24:49.135Z,4.70
2023-02-23T23:27:16.168Z,4.70
2023-02-23T23:29:46.792Z,4.70
2023-02-23T23:32:18.711Z,4.70
2023-02-23T23:34:49.680Z,4.70
2023-02-23T23:37:19.035Z,4.70
2023-02-23T23:39:46.664Z,4.60
2023-02-23T23:42:13.820Z,4.60
2023-02-23T23:44:40.851Z,4.70
2023-02-23T23:47:08.227Z,4.60
2023-02-23T23:49:40.169Z,4.60
2023-02-23T23:52:07.626Z,4.70
2023-02-23T23:54:39.456Z,4.70
2023-02-23T23:57:07.409Z,4.60
2023-02-23T23:59:35.568Z,4.60
